Theobroma, Brazil
Current Conditions -  °F | °C
As of 6:00 AM on Friday 19 Dec 2014 (Local Time) from SBPV Reporting Station
Broken Clouds Broken Clouds  
Wind Chill: 73°   Ceiling: 1500
Heat Index: 73°   Visibility: 6mi
Dew Point: 73°   Wind: 5mph
Humidity: 100%   Direction: 350°N
Pressure: 29.83"   Gusts: NA
Location:  10.24°S, 62.36°W
Report Text: SBPV 191000Z 35004KT 9999 SCT006 BKN015 FEW023TCU 23/23 Q1010 RETSRA
Loading
Personal Weather Stations






























Interactive Weather Map New forecast layout! Learn more

10-Day Weather Forecast

Advertisements
Track Severe Weather on mobile